Station TRTP1 - TREC Tower Image indicating link to RSS feed of recent meteorological observations for station TRTP1


Conditions at TRTP1 as of
(11:00 am EDT)
1500 GMT on 08/31/2026:
Note: This report is more than two hours old
     

Click on the graph icon in the table below to see a time series plot of the last five days of that observation.

5-day plot - Wind Direction Wind Direction (WDIR):WSW ( 240 deg true )
5-day plot - Wind Speed Wind Speed (WSPD): 7.0 kts
5-day plot - Wind Gust Wind Gust (GST): 15.9 kts
5-day plot - Air Temperature Air Temperature (ATMP): 75.7 °F
5-day plot - Dew Point Dew Point (DEWP): 67.3 °F
5-day plot - Wind Speed at 10 Meters Wind Speed at 10 meters (WSPD10M): 5.8 kts
5-day plot - Wind Speed at 20 Meters Wind Speed at 20 meters (WSPD20M): 5.8 kts
5-day plot -  Wind Speed, Wind Gust and Atmospheric Pressure Combined plot of Wind Speed, Gust, and Air Pressure
Previous observations
TIME
(EDT)
5-day plot - Wind Direction
WDIR
 
5-day plot - Wind Speed
WSPD
kts
5-day plot - Wind Gust
GST
kts
5-day plot - Wave Height
WVHT
ft
5-day plot - Dominant Wave Period
DPD
sec
5-day plot - Average Wave Period
APD
sec
5-day plot - Mean Wave Direction
MWD
 
5-day plot - Atmospheric Pressure
PRES
in
5-day plot - Pressure Tendency
PTDY
in
5-day plot - Air Temperature
ATMP
°F
5-day plot - Water Temperature
WTMP
°F
5-day plot - Dew Point
DEWP
°F
5-day plot - Salinity
SAL
psu
5-day plot - Visibility
VIS
nmi
5-day plot - Tide (above MLLW)
TIDE
ft
2026-08-31 10:50 amSSW 8.0 14.0------ 75.6- 67.5---
2026-08-31 10:40 amSSW 8.9 20.0------ 75.0- 67.3---
2026-08-31 10:30 amSSW 11.1 17.1------ 74.5- 66.9---
2026-08-31 10:20 amSSW 8.9 17.1------ 73.9- 66.6---
2026-08-31 10:10 amSSW 7.0 17.1------ 72.9- 66.2---
2026-08-31 10:00 amSSW 8.9 17.1------ 72.0- 65.8---
2026-08-31 09:50 amSSW 9.9 17.1------ 71.2- 65.7---
2026-08-31 09:40 amSSW 11.1 17.1------ 70.7- 65.3---
2026-08-31 09:30 amSSW 8.9 15.9------ 70.3- 65.3---
2026-08-31 09:20 amSSW 9.9 17.1------ 70.2- 64.8---
2026-08-31 09:10 amSSW 8.9 17.1------ 69.8- 64.6---
2026-08-31 09:00 amSSW 9.9 15.9------ 69.3- 64.2---
2026-08-31 08:50 amSSW 8.9 15.0------ 69.1- 64.0---
2026-08-31 08:40 amSSW 14.0 19.0------ 69.1- 63.7---
2026-08-31 08:30 am SW 13.0 20.0------ 69.1- 63.7---
2026-08-31 08:20 am SW 9.9 15.9------ 69.1- 63.7---
2026-08-31 08:10 amSSW 9.9 17.1------ 68.7- 63.3---
2026-08-31 08:00 amSSW 7.0 12.0------ 68.5- 63.5---
2026-08-31 07:50 amSSW 11.1 17.1------ 68.5- 63.3---
2026-08-31 07:40 amSSW 9.9 15.0------ 68.0- 63.3---
2026-08-31 07:30 amSSW 8.9 17.1------ 67.8- 63.3---
2026-08-31 07:20 amSSW 9.9 15.0------ 67.6- 63.1---
2026-08-31 07:10 amSSW 8.9 15.9------ 67.3- 63.5---
2026-08-31 07:00 amSSW 8.0 13.0------ 66.9- 63.7---
2026-08-31 06:50 am S 8.0 13.0------ 66.7- 64.0---
2026-08-31 06:40 am S 8.0 12.0------ 66.2- 64.4---
2026-08-31 06:30 am S 7.0 11.1------ 66.0- 64.6---
2026-08-31 06:20 am S 6.0 11.1------ 65.8- 64.6---
2026-08-31 06:10 am S 7.0 12.0------ 65.8- 64.6---
2026-08-31 06:00 am S 8.0 13.0------ 65.7- 64.4---
2026-08-31 05:50 am S 7.0 12.0------ 65.3- 64.0---
2026-08-31 05:40 amSSW 8.0 12.0------ 65.7- 63.3---
2026-08-31 05:30 amSSW 8.0 12.0------ 65.7- 63.1---
2026-08-31 05:20 amSSW 8.0 12.0------ 65.5- 62.8---
2026-08-31 05:10 am S 6.0 8.9------ 65.3- 62.8---
2026-08-31 05:00 am S 5.1 7.0------ 65.3- 62.8---
2026-08-31 04:50 am S 6.0 8.9------ 65.3- 62.6---
2026-08-31 04:40 amSSE 8.0 9.9------ 65.5- 62.4---
2026-08-31 04:30 am S 6.0 9.9------ 65.3- 62.4---
2026-08-31 04:20 am S 8.9 12.0------ 65.7- 62.1---
2026-08-31 04:10 am S 2.9 6.0------ 65.1- 63.0---
2026-08-31 04:00 amSSE 5.1 9.9------ 65.1- 63.5---
2026-08-31 03:50 am S 7.0 9.9------ 65.5- 63.9---
2026-08-31 03:40 am S 6.0 8.9------ 65.7- 63.7---
2026-08-31 03:30 am S 7.0 11.1------ 65.7- 63.5---
2026-08-31 03:20 am S 6.0 11.1------ 65.7- 63.5---
2026-08-31 03:10 amSSE 7.0 11.1------ 65.5- 63.3---
2026-08-31 03:00 amSSE 7.0 11.1------ 65.8- 63.3---
2026-08-31 02:50 am S 6.0 8.9------ 66.2- 63.0---
2026-08-31 02:40 amSSE 7.0 8.9------ 66.0- 63.1---
2026-08-31 02:30 amSSE 7.0 12.0------ 66.0- 63.3---
2026-08-31 02:20 am S 8.0 14.0------ 66.2- 63.3---
2026-08-31 02:10 amSSE 8.9 15.0------ 65.8- 62.8---
2026-08-31 02:00 am S 9.9 15.9------ 66.0- 63.1---
2026-08-31 01:50 am S 7.0 12.0------ 66.0- 63.0---
2026-08-31 01:40 am S 8.0 14.0------ 65.7- 63.1---
2026-08-31 01:30 am S 9.9 15.9------ 65.7- 63.3---
2026-08-31 01:20 amSSW 9.9 15.9------ 66.2- 63.5---
2026-08-31 01:10 am S 9.9 15.9------ 66.4- 63.5---
2026-08-31 01:00 am S 8.0 14.0------ 66.4- 64.2---
2026-08-31 12:50 am S 7.0 12.0------ 66.4- 64.2---
2026-08-31 12:40 am S 7.0 13.0------ 66.6- 64.2---
2026-08-31 12:30 am S 6.0 9.9------ 66.4- 64.2---
2026-08-31 12:20 amSSW 5.1 8.0------ 66.6- 64.6---
2026-08-31 12:10 am S 7.0 8.9------ 66.6- 64.6---
2026-08-31 12:00 amSSW 4.1 6.0------ 66.9- 64.2---
2026-08-30 11:50 pmWSW 7.0 8.9------ 67.5- 63.7---
2026-08-30 11:40 pm SW 4.1 7.0------ 67.3- 64.9---
2026-08-30 11:30 pm S 5.1 7.0------ 67.6- 66.4---
2026-08-30 11:20 pmSSW 2.9 5.1------ 67.6- 66.4---
2026-08-30 11:10 pm S 4.1 5.1------ 67.8- 65.5---
2026-08-30 11:00 pm S 1.0 1.9------ 67.8- 66.4---
2026-08-30 10:50 pm S 2.9 5.1------ 67.6- 66.4---
2026-08-30 10:40 pm S 4.1 5.1------ 67.6- 66.6---
2026-08-30 10:30 pmSSW 4.1 5.1------ 67.6- 66.7---
2026-08-30 10:20 pmSSW 5.1 8.0------ 67.6- 66.7---
2026-08-30 10:10 pmSSW 5.1 7.0------ 67.8- 67.1---
2026-08-30 10:00 pmSSW 5.1 7.0------ 68.0- 67.3---
2026-08-30 09:50 pm S 4.1 7.0------ 68.2- 67.3---
2026-08-30 09:40 pmSSW 2.9 4.1------ 68.2- 67.1---
2026-08-30 09:30 pm S 2.9 4.1------ 68.5- 67.3---
2026-08-30 09:20 pm S 2.9 5.1------ 68.9- 67.1---
2026-08-30 09:10 pmWSW 2.9 4.1------ 69.1- 66.7---
2026-08-30 09:00 pm W 2.9 6.0------ 69.3- 67.1---
2026-08-30 08:50 pm W 4.1 6.0------ 69.6- 66.9---
2026-08-30 08:40 pm NW 2.9 4.1------ 69.8- 65.5---
2026-08-30 08:30 pm W 1.9 4.1------ 69.6- 65.5---
2026-08-30 08:20 pm SW 1.9 4.1------ 69.8- 65.5---
2026-08-30 08:10 pm SW 2.9 5.1------ 70.0- 65.5---
2026-08-30 08:00 pm SW 4.1 6.0------ 70.2- 65.3---
2026-08-30 07:50 pm SW 4.1 6.0------ 70.2- 65.3---
2026-08-30 07:40 pmSSW 4.1 6.0------ 70.3- 65.8---
2026-08-30 07:30 pm SW 4.1 5.1------ 70.5- 65.8---
2026-08-30 07:20 pmSSW 2.9 4.1------ 70.7- 65.3---
2026-08-30 07:10 pmWNW 1.9 1.9------ 70.9- 64.8---
2026-08-30 07:00 pmWNW 1.0 1.9------ 71.1- 65.3---
2026-08-30 06:50 pmWSW 1.9 2.9------ 70.9- 64.8---
2026-08-30 06:40 pmWSW 2.9 5.1------ 70.9- 64.8---
2026-08-30 06:30 pmWSW 4.1 5.1------ 70.9- 64.9---
2026-08-30 06:20 pm SW 4.1 7.0------ 71.1- 65.1---
2026-08-30 06:10 pm SW 4.1 8.0------ 70.9- 65.1---
2026-08-30 06:00 pmSSW 6.0 8.9------ 70.9- 64.8---
2026-08-30 05:50 pmSSW 4.1 8.0------ 70.9- 64.9---
2026-08-30 05:40 pm S 5.1 8.0------ 70.7- 64.6---
2026-08-30 05:30 pmSSW 6.0 9.9------ 70.7- 64.2---
2026-08-30 05:20 pm S 7.0 11.1------ 70.7- 64.0---
2026-08-30 05:10 pm S 4.1 8.9------ 70.9- 64.6---
2026-08-30 05:00 pm S 5.1 7.0------ 70.7- 64.2---
2026-08-30 04:50 pm S 5.1 8.9------ 70.9- 64.8---
2026-08-30 04:40 pm S 5.1 7.0------ 70.7- 64.9---
2026-08-30 04:30 pmSSW 4.1 7.0------ 70.9- 66.4---
2026-08-30 04:20 pmWSW 7.0 11.1------ 70.9- 66.4---
2026-08-30 04:10 pmWSW 7.0 9.9------ 70.7- 65.7---
2026-08-30 04:00 pmWSW 7.0 9.9------ 70.7- 65.3---
2026-08-30 03:50 pm W 7.0 9.9------ 71.1- 65.1---

Solar Radiation Conditions at TRTP1 as of
(11:00 am EDT)
1500 GMT on 08/31/2026:
Note: This report is more than two hours old
     

Click on the graph icon in the table below to see a time series plot of the last five days of that observation.

5-day plot - Short Wave Radiation 1 Short Wave Radiation 1 (SRAD1): 328.2watts/meter2
Previous observations
TIME
(EDT)
5-day plot - Short Wave Radiation 1
SRAD1
w/m2
5-day plot - Short Wave Radiation 2
SRAD2
w/m2
5-day plot - Long Wave Radiation
LRAD
w/m2
2026-08-31 10:50 am 404.0--
2026-08-31 10:40 am 427.5--
2026-08-31 10:30 am 326.4--
2026-08-31 10:20 am 437.2--
2026-08-31 10:10 am 368.9--
2026-08-31 10:00 am 217.8--
2026-08-31 09:50 am 234.8--
2026-08-31 09:40 am 203.5--
2026-08-31 09:30 am 160.2--
2026-08-31 09:20 am 161.7--
2026-08-31 09:10 am 192.3--
2026-08-31 09:00 am 118.5--
2026-08-31 08:50 am 118.3--
2026-08-31 08:40 am 113.6--
2026-08-31 08:30 am 82.2--
2026-08-31 08:20 am 58.1--
2026-08-31 08:10 am 39.0--
2026-08-31 08:00 am 33.5--
2026-08-31 07:50 am 51.5--
2026-08-31 07:40 am 49.5--
2026-08-31 07:30 am 41.6--
2026-08-31 07:20 am 26.1--
2026-08-31 07:10 am 14.1--
2026-08-31 07:00 am 12.6--
2026-08-31 06:50 am 9.3--
2026-08-31 06:40 am 8.4--
2026-08-31 06:30 am 8.5--
2026-08-31 06:20 am 8.2--
2026-08-31 06:10 am 8.5--
2026-08-31 06:00 am 8.5--
2026-08-31 05:50 am 8.5--
2026-08-31 05:40 am 8.1--
2026-08-31 05:30 am 8.5--
2026-08-31 05:20 am 8.4--
2026-08-31 05:10 am 8.5--
2026-08-31 05:00 am 8.5--
2026-08-31 04:50 am 8.6--
2026-08-31 04:40 am 8.4--
2026-08-31 04:30 am 8.3--
2026-08-31 04:20 am 8.6--
2026-08-31 04:10 am 8.5--
2026-08-31 04:00 am 8.4--
2026-08-31 03:50 am 8.5--
2026-08-31 03:40 am 8.4--
2026-08-31 03:30 am 8.2--
2026-08-31 03:20 am 8.5--
2026-08-31 03:10 am 8.3--
2026-08-31 03:00 am 8.3--
2026-08-31 02:50 am 8.4--
2026-08-31 02:40 am 8.7--
2026-08-31 02:30 am 8.4--
2026-08-31 02:20 am 8.2--
2026-08-31 02:10 am 8.4--
2026-08-31 02:00 am 8.5--
2026-08-31 01:50 am 8.7--
2026-08-31 01:40 am 8.5--
2026-08-31 01:30 am 8.3--
2026-08-31 01:20 am 8.2--
2026-08-31 01:10 am 8.2--
2026-08-31 01:00 am 8.2--
2026-08-31 12:50 am 8.1--
2026-08-31 12:40 am 8.3--
2026-08-31 12:30 am 8.3--
2026-08-31 12:20 am 8.1--
2026-08-31 12:10 am 8.3--
2026-08-31 12:00 am 8.0--
2026-08-30 11:50 pm 8.0--
2026-08-30 11:40 pm 8.0--
2026-08-30 11:30 pm 7.8--
2026-08-30 11:20 pm 8.1--
2026-08-30 11:10 pm 7.6--
2026-08-30 11:00 pm 7.7--
2026-08-30 10:50 pm 8.1--
2026-08-30 10:40 pm 7.8--
2026-08-30 10:30 pm 7.9--
2026-08-30 10:20 pm 7.5--
2026-08-30 10:10 pm 7.6--
2026-08-30 10:00 pm 7.9--
2026-08-30 09:50 pm 7.4--
2026-08-30 09:40 pm 7.4--
2026-08-30 09:30 pm 7.4--
2026-08-30 09:20 pm 7.4--
2026-08-30 09:10 pm 7.3--
2026-08-30 09:00 pm 7.4--
2026-08-30 08:50 pm 7.1--
2026-08-30 08:40 pm 7.4--
2026-08-30 08:30 pm 7.0--
2026-08-30 08:20 pm 7.3--
2026-08-30 08:10 pm 7.0--
2026-08-30 08:00 pm 7.2--
2026-08-30 07:50 pm 7.8--
2026-08-30 07:40 pm 10.2--
2026-08-30 07:30 pm 13.1--
2026-08-30 07:20 pm 19.5--
2026-08-30 07:10 pm 24.4--
2026-08-30 07:00 pm 52.0--
2026-08-30 06:50 pm 56.5--
2026-08-30 06:40 pm 54.5--
2026-08-30 06:30 pm 55.9--
2026-08-30 06:20 pm 75.3--
2026-08-30 06:10 pm 77.3--
2026-08-30 06:00 pm 96.1--
2026-08-30 05:50 pm 107.5--
2026-08-30 05:40 pm 129.9--
2026-08-30 05:30 pm 92.4--
2026-08-30 05:20 pm 161.9--
2026-08-30 05:10 pm 140.5--
2026-08-30 05:00 pm 88.8--
2026-08-30 04:50 pm 109.0--
2026-08-30 04:40 pm 113.2--
2026-08-30 04:30 pm 131.7--
2026-08-30 04:20 pm 209.4--
2026-08-30 04:10 pm 259.8--
2026-08-30 04:00 pm 193.3--
2026-08-30 03:50 pm 138.2--